createdAt,value
2022-09-30T00:01:33.568Z,96565.59
2022-09-30T00:04:01.595Z,96573.09
2022-09-30T00:06:29.788Z,96579.41
2022-09-30T00:08:58.083Z,96577.38
2022-09-30T00:11:31.180Z,96577.78
2022-09-30T00:13:58.430Z,96590.44
2022-09-30T00:16:28.284Z,96587.00
2022-09-30T00:18:56.991Z,96587.59
2022-09-30T00:21:24.377Z,96585.13
2022-09-30T00:23:51.395Z,96596.19
2022-09-30T00:26:20.957Z,96602.09
2022-09-30T00:28:53.037Z,96601.13
2022-09-30T00:31:21.267Z,96605.91
2022-09-30T00:34:07.351Z,96605.34
2022-09-30T00:36:37.415Z,96617.06
2022-09-30T00:39:05.953Z,96627.00
2022-09-30T00:41:32.697Z,96613.66
2022-09-30T00:43:59.362Z,96623.56
2022-09-30T00:46:44.585Z,96615.78
2022-09-30T00:49:20.848Z,96622.09
2022-09-30T00:51:56.406Z,96618.91
2022-09-30T00:54:29.233Z,96615.47
2022-09-30T00:56:59.362Z,96620.38
2022-09-30T00:59:28.915Z,96624.28
2022-09-30T01:01:55.754Z,96623.28
2022-09-30T01:04:24.670Z,96626.31
2022-09-30T01:06:51.377Z,96618.28
2022-09-30T01:09:19.581Z,96618.97
2022-09-30T01:11:47.613Z,96626.84
2022-09-30T01:14:19.427Z,96623.28
2022-09-30T01:17:17.486Z,96629.28
2022-09-30T01:20:14.338Z,96629.84
2022-09-30T01:23:11.388Z,96622.09
2022-09-30T01:26:25.363Z,96625.53
2022-09-30T01:29:35.527Z,96635.56
2022-09-30T01:32:29.700Z,96636.97
2022-09-30T01:35:19.327Z,96635.97
2022-09-30T01:38:02.190Z,96632.63
2022-09-30T01:40:41.921Z,96636.66
2022-09-30T01:43:22.476Z,96634.66
2022-09-30T01:46:01.912Z,96637.50
2022-09-30T01:48:47.063Z,96642.25
2022-09-30T01:51:39.946Z,96642.97
2022-09-30T01:54:32.747Z,96638.06
2022-09-30T01:57:07.950Z,96640.19
2022-09-30T01:59:50.357Z,96641.63
2022-09-30T02:02:20.941Z,96642.94
2022-09-30T02:04:57.652Z,96640.06
2022-09-30T02:07:30.881Z,96633.88
2022-09-30T02:10:07.783Z,96635.47
2022-09-30T02:12:41.947Z,96638.38
2022-09-30T02:15:17.759Z,96636.53
2022-09-30T02:17:52.261Z,96632.50
2022-09-30T02:20:32.867Z,96630.34
2022-09-30T02:23:15.769Z,96627.16
2022-09-30T02:25:47.235Z,96629.44
2022-09-30T02:28:20.949Z,96633.75
2022-09-30T02:30:50.651Z,96626.38
2022-09-30T02:33:29.015Z,96626.28
2022-09-30T02:36:08.594Z,96634.31
2022-09-30T02:38:44.617Z,96630.88
2022-09-30T02:41:22.210Z,96640.50
2022-09-30T02:43:50.568Z,96642.78
2022-09-30T02:46:35.334Z,96641.81
2022-09-30T02:49:14.043Z,96650.72
2022-09-30T02:52:16.070Z,96649.16
2022-09-30T02:55:24.122Z,96660.41
2022-09-30T02:58:04.539Z,96665.88
2022-09-30T03:00:31.778Z,96663.41
2022-09-30T03:03:10.709Z,96674.19
2022-09-30T03:05:37.574Z,96671.44
2022-09-30T03:08:04.420Z,96677.22
2022-09-30T03:10:32.765Z,96681.22
2022-09-30T03:13:43.218Z,96679.78
2022-09-30T03:17:10.819Z,96683.97
2022-09-30T03:19:54.519Z,96684.66
2022-09-30T03:22:56.773Z,96687.28
2022-09-30T03:26:06.847Z,96685.25
2022-09-30T03:28:38.974Z,96692.59
2022-09-30T03:31:25.880Z,96702.50
2022-09-30T03:34:05.256Z,96711.00
2022-09-30T03:36:34.652Z,96710.88
2022-09-30T03:39:39.604Z,96716.78
2022-09-30T03:42:23.195Z,96728.25
2022-09-30T03:45:05.194Z,96735.03
2022-09-30T03:47:35.330Z,96734.16
2022-09-30T03:50:06.314Z,96737.34
2022-09-30T03:52:34.027Z,96736.78
2022-09-30T03:55:04.095Z,96743.25
2022-09-30T03:57:31.015Z,96748.97
2022-09-30T03:59:58.243Z,96742.50
2022-09-30T04:02:25.891Z,96749.56
2022-09-30T04:04:52.829Z,96756.47
2022-09-30T04:07:19.837Z,96753.16
2022-09-30T04:09:46.704Z,96752.44
2022-09-30T04:12:13.374Z,96759.19
2022-09-30T04:14:39.941Z,96760.66
2022-09-30T04:17:07.020Z,96772.28
2022-09-30T04:19:38.222Z,96776.56
2022-09-30T04:22:04.884Z,96777.44
2022-09-30T04:24:31.464Z,96775.84
2022-09-30T04:26:58.222Z,96775.84
2022-09-30T04:29:24.998Z,96777.44
2022-09-30T04:31:51.691Z,96776.88
2022-09-30T04:34:18.835Z,96774.31
2022-09-30T04:36:45.403Z,96767.41
2022-09-30T04:39:12.122Z,96771.41
2022-09-30T04:41:38.978Z,96780.91
2022-09-30T04:44:06.394Z,96784.66
2022-09-30T04:46:36.763Z,96796.88
2022-09-30T04:49:08.753Z,96793.44
2022-09-30T04:51:36.283Z,96793.44
2022-09-30T04:54:03.540Z,96808.66
2022-09-30T04:56:30.289Z,96803.34
2022-09-30T04:58:57.410Z,96804.66
2022-09-30T05:01:24.165Z,96812.97
2022-09-30T05:03:50.808Z,96816.44
2022-09-30T05:06:18.083Z,96824.03
2022-09-30T05:08:46.589Z,96823.91
2022-09-30T05:11:21.377Z,96835.84
2022-09-30T05:13:48.855Z,96831.53
2022-09-30T05:16:17.121Z,96839.13
2022-09-30T05:18:46.233Z,96847.19
2022-09-30T05:21:20.615Z,96844.88
2022-09-30T05:23:47.967Z,96848.03
2022-09-30T05:26:14.628Z,96850.78
2022-09-30T05:28:42.257Z,96849.91
2022-09-30T05:31:09.534Z,96856.25
2022-09-30T05:33:36.408Z,96860.13
2022-09-30T05:36:09.487Z,96864.56
2022-09-30T05:38:38.919Z,96862.00
2022-09-30T05:41:15.922Z,96868.88
2022-09-30T05:43:47.781Z,96862.00
2022-09-30T05:46:16.040Z,96872.78
2022-09-30T05:48:43.070Z,96870.19
2022-09-30T05:51:09.885Z,96877.66
2022-09-30T05:53:38.747Z,96890.31
2022-09-30T05:56:06.698Z,96885.28
2022-09-30T05:58:34.178Z,96889.47
2022-09-30T06:01:12.877Z,96887.88
2022-09-30T06:03:40.972Z,96895.91
2022-09-30T06:06:07.761Z,96889.88
2022-09-30T06:08:34.992Z,96893.59
2022-09-30T06:11:01.861Z,96901.53
2022-09-30T06:13:28.943Z,96908.72
2022-09-30T06:15:58.102Z,96910.72
2022-09-30T06:18:26.098Z,96910.88
2022-09-30T06:20:56.179Z,96910.88
2022-09-30T06:23:22.819Z,96902.38
2022-09-30T06:25:52.965Z,96909.88
2022-09-30T06:28:20.133Z,96912.06
2022-09-30T06:30:47.266Z,96914.53
2022-09-30T06:33:15.217Z,96914.81
2022-09-30T06:35:42.670Z,96917.81
2022-09-30T06:38:10.166Z,96910.47
2022-09-30T06:40:37.281Z,96912.78
2022-09-30T06:43:04.963Z,96914.66
2022-09-30T06:45:33.372Z,96920.69
2022-09-30T06:48:01.816Z,96923.84
2022-09-30T06:50:29.662Z,96919.38
2022-09-30T06:53:00.778Z,96931.34
2022-09-30T06:55:28.699Z,96927.88
2022-09-30T06:57:56.155Z,96931.63
2022-09-30T07:00:24.493Z,96936.94
2022-09-30T07:02:51.145Z,96949.47
2022-09-30T07:05:17.976Z,96943.69
2022-09-30T07:07:44.638Z,96956.94
2022-09-30T07:10:11.918Z,96949.00
2022-09-30T07:12:38.629Z,96957.22
2022-09-30T07:15:07.415Z,96956.06
2022-09-30T07:17:37.049Z,96958.69
2022-09-30T07:20:03.765Z,96958.97
2022-09-30T07:22:31.962Z,96963.41
2022-09-30T07:25:03.803Z,96967.00
2022-09-30T07:27:32.996Z,96975.22
2022-09-30T07:32:47.443Z,96980.09
2022-09-30T07:35:14.380Z,96990.16
2022-09-30T07:37:41.008Z,96988.84
2022-09-30T07:40:09.469Z,96999.38
2022-09-30T07:42:45.875Z,96996.22
2022-09-30T07:45:17.033Z,97003.28
2022-09-30T07:47:43.840Z,96998.66
2022-09-30T07:50:10.942Z,96997.66
2022-09-30T07:52:37.566Z,96999.09
2022-09-30T07:55:04.555Z,96993.03
2022-09-30T07:57:31.210Z,96993.19
2022-09-30T07:59:57.842Z,96996.91
2022-09-30T08:02:25.074Z,97003.41
2022-09-30T08:04:51.695Z,96998.31
2022-09-30T08:07:18.897Z,97013.47
2022-09-30T08:09:45.629Z,97009.88
2022-09-30T08:12:12.245Z,97006.69
2022-09-30T08:14:39.200Z,97011.72
2022-09-30T08:17:06.172Z,97018.63
2022-09-30T08:19:36.048Z,97015.44
2022-09-30T08:24:35.054Z,97022.88
2022-09-30T08:27:01.704Z,97026.34
2022-09-30T08:32:15.382Z,97035.66
2022-09-30T08:34:42.072Z,97037.63
2022-09-30T08:37:10.210Z,97040.72
2022-09-30T08:39:38.167Z,97042.78
2022-09-30T08:42:37.962Z,97045.72
2022-09-30T08:45:35.931Z,97042.44
2022-09-30T08:48:29.730Z,97049.97
2022-09-30T08:51:31.702Z,97049.91
2022-09-30T08:54:02.538Z,97059.41
2022-09-30T08:56:33.961Z,97051.44
2022-09-30T08:59:52.955Z,97058.22
2022-09-30T09:02:24.610Z,97053.97
2022-09-30T09:04:54.963Z,97053.25
2022-09-30T09:07:56.717Z,97054.88
2022-09-30T09:10:46.408Z,97058.84
2022-09-30T09:13:51.445Z,97067.78
2022-09-30T09:16:36.655Z,97076.88
2022-09-30T09:19:10.807Z,97069.09
2022-09-30T09:22:01.944Z,97071.66
2022-09-30T09:24:51.123Z,97071.00
2022-09-30T09:27:42.126Z,97076.25
2022-09-30T09:30:12.357Z,97077.34
2022-09-30T09:32:39.179Z,97064.84
2022-09-30T09:35:21.960Z,97069.22
2022-09-30T09:38:25.985Z,97077.84
2022-09-30T09:41:42.115Z,97074.44
2022-09-30T09:44:49.361Z,97095.50
2022-09-30T09:47:17.248Z,97097.03
2022-09-30T09:49:46.144Z,97098.94
2022-09-30T09:52:57.282Z,97105.31
2022-09-30T09:55:24.079Z,97104.06
2022-09-30T09:58:14.028Z,97098.94
2022-09-30T10:01:09.579Z,97098.56
2022-09-30T10:03:37.480Z,97107.91
2022-09-30T10:06:10.572Z,97102.63
2022-09-30T10:08:39.763Z,97089.13
2022-09-30T10:11:17.970Z,97084.38
2022-09-30T10:13:45.906Z,97094.53
2022-09-30T10:16:32.588Z,97102.78
2022-09-30T10:19:00.205Z,97102.97
2022-09-30T10:21:29.533Z,97120.16
2022-09-30T10:23:57.784Z,97118.94
2022-09-30T10:29:00.959Z,97106.72
2022-09-30T10:31:30.291Z,97096.38
2022-09-30T10:34:38.738Z,97102.84
2022-09-30T10:37:14.797Z,97102.38
2022-09-30T10:39:44.237Z,97110.97
2022-09-30T10:42:26.237Z,97098.69
2022-09-30T10:45:07.529Z,97098.06
2022-09-30T10:47:37.205Z,97112.28
2022-09-30T10:50:09.136Z,97123.06
2022-09-30T10:52:39.410Z,97123.44
2022-09-30T10:55:14.807Z,97124.28
2022-09-30T10:57:44.681Z,97124.16
2022-09-30T11:00:18.815Z,97126.28
2022-09-30T11:03:13.456Z,97125.19
2022-09-30T11:05:45.469Z,97137.25
2022-09-30T11:08:22.243Z,97129.75
2022-09-30T11:10:59.399Z,97128.44
2022-09-30T11:14:09.646Z,97136.91
2022-09-30T11:17:25.514Z,97151.38
2022-09-30T11:20:01.270Z,97137.13
2022-09-30T11:22:42.802Z,97142.75
2022-09-30T11:25:20.792Z,97138.03
2022-09-30T11:28:28.017Z,97129.19
2022-09-30T11:31:12.967Z,97128.00
2022-09-30T11:34:23.254Z,97124.63
2022-09-30T11:37:17.933Z,97125.25
2022-09-30T11:40:29.395Z,97124.38
2022-09-30T11:43:44.864Z,97127.47
2022-09-30T11:47:03.306Z,97122.22
2022-09-30T11:52:31.789Z,97125.31
2022-09-30T11:55:30.114Z,97127.13
2022-09-30T11:58:39.413Z,97126.28
2022-09-30T12:01:21.259Z,97127.94
2022-09-30T12:04:02.983Z,97128.94
2022-09-30T12:06:36.498Z,97123.66
2022-09-30T12:09:15.805Z,97120.06
2022-09-30T12:11:55.673Z,97123.06
2022-09-30T12:14:33.363Z,97116.13
2022-09-30T12:17:03.548Z,97113.72
2022-09-30T12:19:47.515Z,97116.75
2022-09-30T12:22:28.708Z,97124.63
2022-09-30T12:24:55.982Z,97120.09
2022-09-30T12:27:35.500Z,97125.50
2022-09-30T12:30:19.204Z,97125.47
2022-09-30T12:33:20.553Z,97124.91
2022-09-30T12:36:22.158Z,97128.97
2022-09-30T12:39:11.564Z,97130.84
2022-09-30T12:42:36.635Z,97134.13
2022-09-30T12:45:44.508Z,97123.34
2022-09-30T12:48:17.662Z,97139.81
2022-09-30T12:50:53.201Z,97136.13
2022-09-30T12:53:24.272Z,97125.38
2022-09-30T12:55:51.759Z,97131.25
2022-09-30T12:58:31.201Z,97130.28
2022-09-30T13:01:13.232Z,97125.38
2022-09-30T13:04:29.495Z,97121.41
2022-09-30T13:07:18.301Z,97128.13
2022-09-30T13:10:28.897Z,97129.53
2022-09-30T13:13:13.605Z,97137.22
2022-09-30T13:15:43.330Z,97131.38
2022-09-30T13:21:23.840Z,97132.44
2022-09-30T13:23:55.689Z,97120.47
2022-09-30T13:27:07.369Z,97124.66
2022-09-30T13:29:35.637Z,97128.13
2022-09-30T13:32:03.541Z,97126.22
2022-09-30T13:34:47.496Z,97131.84
2022-09-30T13:37:36.191Z,97125.13
2022-09-30T13:40:06.359Z,97130.06
2022-09-30T13:42:41.570Z,97144.75
2022-09-30T13:45:18.558Z,97137.09
2022-09-30T13:47:56.579Z,97139.13
2022-09-30T13:50:45.454Z,97142.94
2022-09-30T13:53:22.296Z,97142.69
2022-09-30T13:55:53.785Z,97140.31
2022-09-30T13:59:06.668Z,97129.41
2022-09-30T14:02:16.262Z,97132.63
2022-09-30T14:05:04.513Z,97133.34
2022-09-30T14:07:49.493Z,97134.69
2022-09-30T14:10:34.868Z,97140.41
2022-09-30T14:13:37.136Z,97145.06
2022-09-30T14:17:00.961Z,97136.81
2022-09-30T14:19:53.355Z,97136.09
2022-09-30T14:22:21.822Z,97131.94
2022-09-30T14:24:50.597Z,97135.38
2022-09-30T14:27:45.704Z,97132.16
2022-09-30T14:30:27.619Z,97135.25
2022-09-30T14:32:58.447Z,97130.94
2022-09-30T14:35:31.252Z,97125.72
2022-09-30T14:38:20.606Z,97120.31
2022-09-30T14:40:56.343Z,97122.97
2022-09-30T14:43:36.810Z,97122.47
2022-09-30T14:46:41.000Z,97122.47
2022-09-30T14:49:17.855Z,97118.41
2022-09-30T14:51:47.139Z,97123.91
2022-09-30T14:54:26.621Z,97127.97
2022-09-30T14:56:56.441Z,97129.28
2022-09-30T14:59:28.065Z,97135.25
2022-09-30T15:02:00.586Z,97130.84
2022-09-30T15:04:33.782Z,97134.44
2022-09-30T15:07:03.489Z,97131.69
2022-09-30T15:09:36.226Z,97130.25
2022-09-30T15:12:05.521Z,97131.56
2022-09-30T15:14:35.699Z,97130.13
2022-09-30T15:17:06.022Z,97133.47
2022-09-30T15:19:35.097Z,97130.59
2022-09-30T15:22:04.725Z,97131.06
2022-09-30T15:24:33.063Z,97129.75
2022-09-30T15:27:01.189Z,97139.19
2022-09-30T15:29:28.312Z,97139.91
2022-09-30T15:32:18.438Z,97139.78
2022-09-30T15:34:46.068Z,97136.06
2022-09-30T15:37:24.300Z,97137.88
2022-09-30T15:40:10.415Z,97144.06
2022-09-30T15:42:45.453Z,97150.50
2022-09-30T15:45:20.965Z,97151.53
2022-09-30T15:48:04.791Z,97156.94
2022-09-30T15:50:49.079Z,97166.47
2022-09-30T15:53:25.833Z,97167.91
2022-09-30T15:55:55.859Z,97176.03
2022-09-30T15:58:42.390Z,97174.34
2022-09-30T16:01:34.364Z,97174.09
2022-09-30T16:04:24.559Z,97178.13
2022-09-30T16:06:56.993Z,97173.94
2022-09-30T16:09:34.700Z,97185.66
2022-09-30T16:12:15.296Z,97184.81
2022-09-30T16:15:07.191Z,97168.81
2022-09-30T16:17:39.082Z,97176.19
2022-09-30T16:20:26.050Z,97184.75
2022-09-30T16:22:55.089Z,97173.75
2022-09-30T16:25:33.182Z,97188.09
2022-09-30T16:28:01.758Z,97187.81
2022-09-30T16:30:32.267Z,97187.81
2022-09-30T16:33:04.260Z,97188.53
2022-09-30T16:35:31.035Z,97195.31
2022-09-30T16:38:01.285Z,97198.66
2022-09-30T16:40:28.894Z,97191.00
2022-09-30T16:42:56.016Z,97193.63
2022-09-30T16:45:22.947Z,97198.25
2022-09-30T16:47:50.598Z,97200.16
2022-09-30T16:50:38.660Z,97206.22
2022-09-30T16:53:05.543Z,97213.16
2022-09-30T16:55:32.529Z,97204.69
2022-09-30T16:57:59.598Z,97206.09
2022-09-30T17:00:27.997Z,97201.78
2022-09-30T17:02:55.215Z,97202.38
2022-09-30T17:05:23.756Z,97213.09
2022-09-30T17:08:04.025Z,97217.59
2022-09-30T17:10:33.272Z,97221.66
2022-09-30T17:13:00.658Z,97218.75
2022-09-30T17:15:29.043Z,97221.50
2022-09-30T17:17:56.461Z,97217.47
2022-09-30T17:20:23.601Z,97228.31
2022-09-30T17:22:50.290Z,97239.28
2022-09-30T17:25:17.404Z,97242.63
2022-09-30T17:27:48.773Z,97236.69
2022-09-30T17:30:16.204Z,97243.34
2022-09-30T17:32:42.850Z,97247.38
2022-09-30T17:35:10.171Z,97243.34
2022-09-30T17:37:46.237Z,97251.69
2022-09-30T17:40:32.197Z,97246.38
2022-09-30T17:43:08.596Z,97251.47
2022-09-30T17:45:36.032Z,97257.00
2022-09-30T17:48:03.025Z,97252.53
2022-09-30T17:50:29.750Z,97256.75
2022-09-30T17:52:56.446Z,97254.72
2022-09-30T17:55:23.075Z,97260.06
2022-09-30T17:57:50.803Z,97248.38
2022-09-30T18:00:17.448Z,97252.41
2022-09-30T18:02:44.729Z,97255.44
2022-09-30T18:05:11.836Z,97258.03
2022-09-30T18:07:38.599Z,97261.34
2022-09-30T18:10:05.882Z,97258.03
2022-09-30T18:12:34.579Z,97252.84
2022-09-30T18:15:01.466Z,97253.84
2022-09-30T18:17:28.273Z,97257.19
2022-09-30T18:19:54.931Z,97261.94
2022-09-30T18:22:21.579Z,97252.84
2022-09-30T18:25:06.461Z,97261.66
2022-09-30T18:27:34.042Z,97253.44
2022-09-30T18:30:01.570Z,97255.44
2022-09-30T18:32:28.766Z,97260.22
2022-09-30T18:34:56.385Z,97259.50
2022-09-30T18:37:28.319Z,97252.44
2022-09-30T18:39:55.158Z,97250.75
2022-09-30T18:42:21.845Z,97243.66
2022-09-30T18:44:48.833Z,97246.41
2022-09-30T18:47:17.153Z,97248.44
2022-09-30T18:49:44.260Z,97244.25
2022-09-30T18:52:11.102Z,97248.16
2022-09-30T18:54:38.014Z,97239.34
2022-09-30T18:57:04.986Z,97247.56
2022-09-30T18:59:31.585Z,97241.81
2022-09-30T19:01:59.998Z,97243.13
2022-09-30T19:04:26.590Z,97248.63
2022-09-30T19:06:53.190Z,97247.75
2022-09-30T19:09:19.791Z,97255.09
2022-09-30T19:11:47.960Z,97258.56
2022-09-30T19:14:17.614Z,97258.13
2022-09-30T19:16:45.043Z,97251.91
2022-09-30T19:19:11.722Z,97256.13
2022-09-30T19:21:39.325Z,97250.63
2022-09-30T19:24:08.035Z,97251.47
2022-09-30T19:26:36.635Z,97249.91
2022-09-30T19:29:05.393Z,97253.81
2022-09-30T19:31:34.103Z,97255.53
2022-09-30T19:34:02.046Z,97251.81
2022-09-30T19:36:31.936Z,97253.84
2022-09-30T19:39:11.167Z,97253.25
2022-09-30T19:41:38.745Z,97250.50
2022-09-30T19:44:05.459Z,97258.59
2022-09-30T19:46:34.687Z,97260.75
2022-09-30T19:49:01.385Z,97252.97
2022-09-30T19:51:30.823Z,97262.94
2022-09-30T19:54:06.075Z,97250.13
2022-09-30T19:56:34.124Z,97243.91
2022-09-30T19:59:00.797Z,97254.16
2022-09-30T20:01:28.818Z,97245.94
2022-09-30T20:03:57.468Z,97245.66
2022-09-30T20:06:24.308Z,97236.41
2022-09-30T20:08:53.506Z,97240.03
2022-09-30T20:11:21.971Z,97235.13
2022-09-30T20:14:13.143Z,97237.13
2022-09-30T20:16:41.553Z,97239.88
2022-09-30T20:19:08.391Z,97241.91
2022-09-30T20:21:35.374Z,97240.47
2022-09-30T20:24:02.525Z,97237.00
2022-09-30T20:26:29.277Z,97238.31
2022-09-30T20:28:57.827Z,97237.56
2022-09-30T20:31:25.486Z,97231.53
2022-09-30T20:33:56.696Z,97230.09
2022-09-30T20:36:25.168Z,97226.59
2022-09-30T20:39:00.158Z,97228.34
2022-09-30T20:41:27.398Z,97232.13
2022-09-30T20:43:54.120Z,97239.75
2022-09-30T20:46:22.261Z,97240.59
2022-09-30T20:48:49.989Z,97243.91
2022-09-30T20:51:19.080Z,97238.44
2022-09-30T20:53:50.992Z,97243.22
2022-09-30T20:56:18.250Z,97248.69
2022-09-30T20:58:44.856Z,97242.03
2022-09-30T21:01:14.155Z,97237.00
2022-09-30T21:03:42.029Z,97237.00
2022-09-30T21:06:12.534Z,97244.47
2022-09-30T21:08:42.878Z,97248.81
2022-09-30T21:11:10.911Z,97252.97
2022-09-30T21:13:41.738Z,97257.31
2022-09-30T21:16:11.847Z,97251.13
2022-09-30T21:18:38.445Z,97254.56
2022-09-30T21:21:05.812Z,97244.22
2022-09-30T21:23:34.179Z,97251.31
2022-09-30T21:26:06.037Z,97251.00
2022-09-30T21:28:33.139Z,97258.50
2022-09-30T21:31:03.930Z,97261.22
2022-09-30T21:33:30.570Z,97277.97
2022-09-30T21:36:06.134Z,97264.69
2022-09-30T21:38:34.173Z,97263.94
2022-09-30T21:41:02.852Z,97262.50
2022-09-30T21:43:37.313Z,97262.38
2022-09-30T21:46:06.790Z,97269.00
2022-09-30T21:48:35.125Z,97276.50
2022-09-30T21:51:02.506Z,97275.63
2022-09-30T21:53:29.471Z,97280.53
2022-09-30T21:55:57.753Z,97288.31
2022-09-30T21:58:26.002Z,97289.06
2022-09-30T22:00:56.787Z,97290.75
2022-09-30T22:03:23.634Z,97298.84
2022-09-30T22:05:54.852Z,97291.78
2022-09-30T22:08:22.460Z,97297.81
2022-09-30T22:10:51.047Z,97295.41
2022-09-30T22:13:18.345Z,97288.03
2022-09-30T22:15:46.794Z,97281.53
2022-09-30T22:18:18.423Z,97289.31
2022-09-30T22:20:46.542Z,97295.38
2022-09-30T22:23:14.997Z,97305.44
2022-09-30T22:25:41.779Z,97307.31
2022-09-30T22:28:08.509Z,97308.03
2022-09-30T22:30:35.385Z,97314.41
2022-09-30T22:33:20.528Z,97309.06
2022-09-30T22:36:05.916Z,97317.72
2022-09-30T22:38:32.824Z,97326.94
2022-09-30T22:40:59.661Z,97323.47
2022-09-30T22:43:26.969Z,97320.59
2022-09-30T22:46:08.293Z,97324.50
2022-09-30T22:48:35.849Z,97316.28
2022-09-30T22:51:02.617Z,97322.59
2022-09-30T22:53:29.394Z,97314.38
2022-09-30T22:55:56.062Z,97317.72
2022-09-30T22:58:24.368Z,97318.59
2022-09-30T23:00:52.980Z,97318.00
2022-09-30T23:03:19.685Z,97328.97
2022-09-30T23:05:46.453Z,97329.84
2022-09-30T23:08:13.131Z,97333.00
2022-09-30T23:10:52.219Z,97336.91
2022-09-30T23:13:22.377Z,97337.63
2022-09-30T23:15:49.000Z,97332.16
2022-09-30T23:18:17.246Z,97333.00
2022-09-30T23:20:56.930Z,97341.09
2022-09-30T23:23:24.190Z,97334.47
2022-09-30T23:26:08.287Z,97328.41
2022-09-30T23:28:35.921Z,97339.22
2022-09-30T23:31:06.435Z,97338.91
2022-09-30T23:33:33.244Z,97337.19
2022-09-30T23:36:02.844Z,97335.88
2022-09-30T23:38:30.159Z,97327.09
2022-09-30T23:41:00.040Z,97326.81
2022-09-30T23:43:31.659Z,97324.63
2022-09-30T23:45:59.009Z,97321.88
2022-09-30T23:48:26.144Z,97323.91
2022-09-30T23:50:53.395Z,97322.91
2022-09-30T23:53:22.812Z,97324.34
2022-09-30T23:55:56.735Z,97321.44
2022-09-30T23:58:27.303Z,97324.19
